Time;durP1;ratioP1;P1;durP2;ratioP2;P2;SDS_P1;SDS_P2;PMS_P1;PMS_P2;Temp;Humidity;BMP_temperature;BMP_pressure;BME280_temperature;BME280_humidity;BME280_pressure;Samples;Min_cycle;Max_cycle;Signal;HPM_P1;HPM_P2
2022/07/02 00:01:51;;;;;;;3.90;3.03;;;14.10;99.90;;;;;;4918937;29;20043;-72
2022/07/02 00:04:25;;;;;;;2.30;2.10;;;14.10;99.90;;;;;;4916241;28;20143;-73
2022/07/02 00:06:51;;;;;;;4.43;2.83;;;14.10;99.90;;;;;;4907823;29;20064;-72
2022/07/02 00:09:18;;;;;;;3.00;2.38;;;14.00;99.90;;;;;;4913912;29;20654;-73
2022/07/02 00:11:47;;;;;;;3.13;2.60;;;14.00;99.90;;;;;;4912774;29;20047;-72
2022/07/02 00:14:14;;;;;;;2.35;2.15;;;14.00;99.90;;;;;;4918342;29;20573;-73
2022/07/02 00:16:46;;;;;;;2.55;2.30;;;14.00;99.90;;;;;;4913811;29;20191;-72
2022/07/02 00:19:14;;;;;;;4.78;2.75;;;14.00;99.90;;;;;;4916328;29;20123;-72
2022/07/02 00:21:40;;;;;;;3.08;2.80;;;14.00;99.90;;;;;;4918991;29;20048;-72
2022/07/02 00:24:09;;;;;;;3.42;2.60;;;13.90;99.90;;;;;;4908296;28;20095;-72
2022/07/02 00:26:40;;;;;;;2.63;2.42;;;13.90;99.90;;;;;;4906822;29;20048;-73
2022/07/02 00:29:19;;;;;;;3.10;2.83;;;13.90;99.90;;;;;;4914711;29;20050;-72
2022/07/02 00:31:45;;;;;;;2.75;2.08;;;13.90;99.90;;;;;;4913771;29;20062;-72
2022/07/02 00:34:11;;;;;;;3.95;3.15;;;13.80;99.90;;;;;;4907696;28;20048;-71
2022/07/02 00:36:37;;;;;;;2.72;2.53;;;13.80;99.90;;;;;;4914378;29;20889;-73
2022/07/02 00:39:03;;;;;;;4.13;2.53;;;13.70;99.90;;;;;;4914105;29;20127;-73
2022/07/02 00:41:30;;;;;;;3.58;2.17;;;13.80;99.90;;;;;;4914773;28;20051;-72
2022/07/02 00:43:57;;;;;;;4.43;2.90;;;13.80;99.90;;;;;;4918553;29;20048;-73
2022/07/02 00:46:24;;;;;;;3.67;2.40;;;13.70;99.90;;;;;;4918690;29;20122;-73
2022/07/02 00:48:50;;;;;;;5.93;2.70;;;13.70;99.90;;;;;;4916566;29;20135;-71
2022/07/02 00:51:15;;;;;;;3.33;2.72;;;13.70;99.90;;;;;;4918253;29;20073;-72
2022/07/02 00:53:41;;;;;;;5.15;2.60;;;13.70;99.90;;;;;;4918900;29;20767;-72
2022/07/02 00:56:07;;;;;;;6.32;2.97;;;13.60;99.90;;;;;;4918762;29;20445;-72
2022/07/02 00:58:33;;;;;;;2.42;2.22;;;13.60;99.90;;;;;;4908288;29;20110;-72
2022/07/02 01:00:59;;;;;;;2.88;2.33;;;13.60;99.90;;;;;;4914989;29;20875;-72
2022/07/02 01:03:26;;;;;;;3.65;3.35;;;13.60;99.90;;;;;;4916225;29;20448;-73
2022/07/02 01:05:52;;;;;;;2.50;2.30;;;13.60;99.90;;;;;;4908679;29;20123;-73
2022/07/02 01:11:07;;;;;;;4.00;2.75;;;13.50;99.90;;;;;;4919040;29;20695;-73
2022/07/02 01:13:33;;;;;;;4.93;3.03;;;13.50;99.90;;;;;;4911904;29;20083;-72
2022/07/02 01:16:00;;;;;;;3.47;2.97;;;13.50;99.90;;;;;;4917725;29;20087;-72
2022/07/02 01:18:26;;;;;;;4.47;3.08;;;13.50;99.90;;;;;;4916171;29;20051;-72
2022/07/02 01:20:52;;;;;;;5.00;3.40;;;13.50;99.90;;;;;;4916928;29;20176;-72
2022/07/02 01:23:17;;;;;;;3.33;2.95;;;13.50;99.90;;;;;;4923393;29;20047;-72
2022/07/02 01:25:53;;;;;;;2.78;2.28;;;13.40;99.90;;;;;;4922142;28;20789;-72
2022/07/02 01:28:20;;;;;;;2.80;2.58;;;13.40;99.90;;;;;;4918079;29;20067;-72
2022/07/02 01:30:49;;;;;;;3.78;2.50;;;13.40;99.90;;;;;;4914419;29;20064;-73
2022/07/02 01:33:15;;;;;;;3.10;2.70;;;13.40;99.90;;;;;;4909905;29;20040;-72
2022/07/02 01:35:41;;;;;;;2.97;2.72;;;13.30;99.90;;;;;;4918464;29;20818;-72
2022/07/02 01:38:07;;;;;;;5.60;2.95;;;13.30;99.90;;;;;;4920015;28;20082;-72
2022/07/02 01:40:32;;;;;;;2.60;2.40;;;13.30;99.90;;;;;;4918799;29;20058;-73
2022/07/02 01:42:58;;;;;;;4.78;3.28;;;13.20;99.90;;;;;;4919239;29;20058;-72
2022/07/02 01:45:24;;;;;;;4.75;2.75;;;13.50;99.90;;;;;;4922834;29;20044;-72
2022/07/02 01:47:49;;;;;;;5.55;2.45;;;13.20;99.90;;;;;;4919465;29;20500;-72
2022/07/02 01:50:15;;;;;;;7.63;2.70;;;13.20;99.90;;;;;;4915254;29;20511;-72
2022/07/02 01:52:42;;;;;;;5.00;3.35;;;13.20;99.90;;;;;;4918458;29;20051;-72
2022/07/02 01:55:08;;;;;;;7.28;2.78;;;13.10;99.90;;;;;;4914280;29;20133;-73
2022/07/02 01:57:35;;;;;;;2.55;2.35;;;13.10;99.90;;;;;;4923650;29;20160;-72
2022/07/02 02:00:09;;;;;;;3.20;2.88;;;13.10;99.90;;;;;;4924159;29;20131;-72
2022/07/02 02:02:35;;;;;;;2.78;2.35;;;13.10;99.90;;;;;;4916737;29;20047;-72
2022/07/02 02:05:01;;;;;;;3.05;2.83;;;13.00;99.90;;;;;;4919345;28;20063;-72
2022/07/02 02:07:28;;;;;;;3.95;3.20;;;13.00;99.90;;;;;;4917596;29;20175;-72
2022/07/02 02:09:53;;;;;;;6.63;3.17;;;13.00;99.90;;;;;;4921098;29;20166;-72
2022/07/02 02:12:19;;;;;;;3.25;2.95;;;13.00;99.90;;;;;;4920475;29;20150;-72
2022/07/02 02:14:45;;;;;;;3.40;3.10;;;12.90;99.90;;;;;;4909275;29;20052;-72
2022/07/02 02:17:11;;;;;;;6.28;3.95;;;13.00;99.90;;;;;;4915598;29;20070;-72
2022/07/02 02:19:37;;;;;;;3.42;2.75;;;13.00;99.90;;;;;;4911533;29;20361;-72
2022/07/02 02:22:02;;;;;;;5.57;3.42;;;13.00;99.90;;;;;;4921811;29;20055;-73
2022/07/02 02:24:28;;;;;;;4.35;3.25;;;13.00;99.90;;;;;;4922668;29;20059;-72
2022/07/02 02:26:54;;;;;;;4.10;2.85;;;13.00;99.90;;;;;;4921023;29;20073;-73
2022/07/02 02:29:20;;;;;;;5.35;3.40;;;12.90;99.90;;;;;;4914482;29;20597;-72
2022/07/02 02:31:45;;;;;;;4.70;3.92;;;12.90;99.90;;;;;;4919393;29;20539;-73
2022/07/02 02:34:11;;;;;;;4.40;2.50;;;13.00;99.90;;;;;;4922958;28;20054;-72
2022/07/02 02:36:37;;;;;;;3.40;2.72;;;13.00;99.90;;;;;;4909907;29;20136;-72
2022/07/02 02:39:03;;;;;;;3.60;2.50;;;13.00;99.90;;;;;;4925577;28;20675;-72
2022/07/02 02:41:28;;;;;;;4.15;3.20;;;13.00;99.90;;;;;;4919171;29;20178;-72
2022/07/02 02:43:54;;;;;;;10.57;4.03;;;13.00;99.90;;;;;;4918743;29;20047;-72
2022/07/02 02:46:20;;;;;;;3.90;2.80;;;12.90;99.90;;;;;;4918611;29;20142;-72
2022/07/02 02:48:45;;;;;;;4.03;3.55;;;12.90;99.90;;;;;;4917718;29;20050;-73
2022/07/02 02:51:14;;;;;;;4.82;3.42;;;13.00;99.90;;;;;;4912112;29;20048;-72
2022/07/02 02:53:42;;;;;;;6.35;3.28;;;12.90;99.90;;;;;;4913609;28;20904;-72
2022/07/02 02:56:08;;;;;;;5.60;3.67;;;12.90;99.90;;;;;;4917534;29;21002;-72
2022/07/02 02:58:34;;;;;;;4.82;3.80;;;12.90;99.90;;;;;;4924527;28;20052;-72
2022/07/02 03:00:59;;;;;;;7.15;3.17;;;12.90;99.90;;;;;;4919623;29;20066;-72
2022/07/02 03:03:25;;;;;;;5.75;3.20;;;12.90;99.90;;;;;;4903843;29;20055;-72
2022/07/02 03:05:51;;;;;;;7.63;4.00;;;12.90;99.90;;;;;;4904277;29;20044;-72
2022/07/02 03:08:16;;;;;;;5.95;3.17;;;12.90;99.90;;;;;;4912990;29;20167;-72
2022/07/02 03:10:42;;;;;;;3.03;2.78;;;12.90;99.90;;;;;;4916037;29;20052;-72
2022/07/02 03:13:08;;;;;;;4.47;3.25;;;12.90;99.90;;;;;;4915519;29;20052;-72
2022/07/02 03:15:34;;;;;;;5.30;3.90;;;12.90;99.90;;;;;;4919916;29;20413;-72
2022/07/02 03:17:59;;;;;;;9.25;3.88;;;12.90;99.90;;;;;;4920952;29;20090;-72
2022/07/02 03:20:25;;;;;;;6.43;3.28;;;12.90;99.90;;;;;;4919218;28;20040;-72
2022/07/02 03:22:51;;;;;;;6.28;3.67;;;12.90;99.90;;;;;;4906974;29;20139;-72
2022/07/02 03:25:16;;;;;;;4.95;3.28;;;12.90;99.90;;;;;;4919023;29;20043;-72
2022/07/02 03:27:42;;;;;;;4.20;3.13;;;12.90;99.90;;;;;;4920939;29;20055;-72
2022/07/02 03:30:08;;;;;;;4.40;3.83;;;12.90;99.90;;;;;;4912711;29;20067;-73
2022/07/02 03:32:34;;;;;;;6.20;3.97;;;12.90;99.90;;;;;;4917484;29;20102;-73
2022/07/02 03:35:00;;;;;;;4.57;3.10;;;12.90;99.90;;;;;;4919269;29;20567;-73
2022/07/02 03:37:28;;;;;;;4.07;3.33;;;12.90;99.90;;;;;;4912463;29;20162;-72
2022/07/02 03:39:54;;;;;;;5.00;3.17;;;12.90;99.90;;;;;;4915038;29;20051;-72
2022/07/02 03:42:20;;;;;;;5.65;3.90;;;12.90;99.90;;;;;;4916018;29;20393;-72
2022/07/02 03:44:45;;;;;;;4.40;3.40;;;12.90;99.90;;;;;;4917421;29;20047;-73
2022/07/02 03:47:11;;;;;;;5.93;3.55;;;12.90;99.90;;;;;;4917604;29;20523;-72
2022/07/02 03:49:37;;;;;;;8.40;3.53;;;12.90;99.90;;;;;;4925746;29;20044;-72
2022/07/02 03:52:03;;;;;;;3.97;3.42;;;12.90;99.90;;;;;;4919454;29;20082;-72
2022/07/02 03:54:29;;;;;;;7.68;3.22;;;12.90;99.90;;;;;;4915833;29;20055;-73
2022/07/02 03:56:55;;;;;;;3.50;3.20;;;12.90;99.90;;;;;;4917712;29;20056;-73
2022/07/02 03:59:21;;;;;;;4.07;2.95;;;12.90;99.90;;;;;;4917975;29;20046;-72
2022/07/02 04:01:46;;;;;;;5.35;3.92;;;12.90;99.90;;;;;;4919382;29;20059;-73
2022/07/02 04:04:12;;;;;;;5.00;3.75;;;12.90;99.90;;;;;;4916942;29;20056;-72
2022/07/02 04:06:38;;;;;;;5.32;3.70;;;12.90;99.90;;;;;;4918684;29;20078;-73
2022/07/02 04:09:03;;;;;;;6.63;3.97;;;13.00;99.90;;;;;;4919622;29;20087;-73
2022/07/02 04:11:29;;;;;;;4.07;3.50;;;13.00;99.90;;;;;;4910729;29;20096;-73
2022/07/02 04:13:55;;;;;;;4.25;3.80;;;13.00;99.90;;;;;;4915641;29;20043;-73
2022/07/02 04:16:20;;;;;;;7.00;4.00;;;13.00;99.90;;;;;;4919539;29;20448;-72
2022/07/02 04:18:46;;;;;;;3.97;3.58;;;13.00;99.90;;;;;;4904828;29;20047;-73
2022/07/02 04:21:12;;;;;;;4.60;3.08;;;13.10;99.90;;;;;;4904835;29;20047;-73
2022/07/02 04:23:38;;;;;;;7.13;4.93;;;13.10;99.90;;;;;;4904994;29;20048;-73
2022/07/02 04:26:05;;;;;;;4.85;4.35;;;13.20;99.90;;;;;;4920602;29;20047;-72
2022/07/02 04:28:32;;;;;;;6.07;5.03;;;13.20;99.90;;;;;;4903762;29;20059;-72
2022/07/02 04:30:57;;;;;;;6.55;4.55;;;13.30;99.90;;;;;;4905010;29;20044;-73
2022/07/02 04:33:23;;;;;;;9.75;4.30;;;13.30;99.90;;;;;;4902543;29;20051;-73
2022/07/02 04:35:49;;;;;;;6.53;4.60;;;13.40;99.90;;;;;;4913261;29;20059;-72
2022/07/02 04:38:16;;;;;;;4.78;4.30;;;13.40;99.90;;;;;;4907569;29;20591;-73
2022/07/02 04:40:42;;;;;;;6.47;4.82;;;13.50;99.90;;;;;;4905653;29;20080;-73
2022/07/02 04:43:07;;;;;;;7.50;5.03;;;13.50;99.90;;;;;;4905735;29;20056;-73
2022/07/02 04:45:33;;;;;;;5.70;4.93;;;13.60;99.90;;;;;;4909316;29;20590;-72
2022/07/02 04:47:59;;;;;;;9.25;5.00;;;13.70;99.90;;;;;;4919005;29;20129;-72
2022/07/02 04:50:24;;;;;;;4.78;4.22;;;13.70;99.90;;;;;;4916397;29;20574;-73
2022/07/02 04:52:50;;;;;;;6.47;4.70;;;13.80;99.90;;;;;;4919333;29;20051;-73
2022/07/02 04:55:16;;;;;;;8.52;6.50;;;13.80;99.90;;;;;;4917940;29;20892;-72
2022/07/02 04:57:42;;;;;;;8.88;4.85;;;13.90;99.90;;;;;;4917994;29;20051;-73
2022/07/02 05:00:08;;;;;;;8.55;5.57;;;13.90;99.90;;;;;;4919993;29;20174;-72
2022/07/02 05:02:35;;;;;;;10.75;6.03;;;14.00;99.90;;;;;;4918206;29;20055;-73
2022/07/02 05:05:01;;;;;;;9.88;5.22;;;14.10;99.90;;;;;;4930173;29;20105;-72
2022/07/02 05:07:27;;;;;;;10.98;6.57;;;14.10;99.90;;;;;;4921787;28;20043;-73
2022/07/02 05:09:52;;;;;;;7.25;5.70;;;14.20;99.90;;;;;;4925445;29;20499;-73
2022/07/02 05:12:18;;;;;;;8.75;6.22;;;14.20;99.90;;;;;;4926339;28;20305;-73
2022/07/02 05:14:44;;;;;;;8.88;5.78;;;14.30;99.90;;;;;;4926673;28;20054;-73
2022/07/02 05:17:10;;;;;;;8.85;5.38;;;14.30;99.90;;;;;;4929245;28;20089;-72
2022/07/02 05:19:35;;;;;;;6.80;6.05;;;14.40;99.90;;;;;;4942367;28;20139;-73
2022/07/02 05:22:01;;;;;;;13.20;6.65;;;14.40;99.90;;;;;;4925404;29;20051;-73
2022/07/02 05:24:27;;;;;;;5.68;4.55;;;14.50;99.90;;;;;;4919002;29;20054;-73
2022/07/02 05:26:52;;;;;;;7.95;5.60;;;14.60;99.90;;;;;;4937454;28;20620;-73
2022/07/02 05:29:18;;;;;;;7.65;6.10;;;14.70;99.90;;;;;;4909557;29;20099;-73
2022/07/02 05:31:44;;;;;;;8.40;5.95;;;14.70;99.90;;;;;;4925123;29;20055;-72
2022/07/02 05:34:09;;;;;;;6.40;5.35;;;14.80;99.90;;;;;;4922478;29;20082;-72
2022/07/02 05:36:35;;;;;;;7.75;5.30;;;14.90;99.90;;;;;;4929199;28;20110;-72
2022/07/02 05:39:01;;;;;;;9.23;5.18;;;14.90;99.90;;;;;;4918521;29;20047;-72
2022/07/02 05:41:27;;;;;;;7.30;5.60;;;15.00;99.90;;;;;;4913561;29;20055;-72
2022/07/02 05:43:52;;;;;;;10.20;5.93;;;15.10;99.90;;;;;;4918400;29;20062;-73
2022/07/02 05:46:18;;;;;;;6.32;4.65;;;15.20;99.90;;;;;;4922230;29;20826;-72
2022/07/02 05:48:44;;;;;;;7.03;4.70;;;15.20;99.90;;;;;;4919770;29;20424;-72
2022/07/02 05:51:09;;;;;;;10.02;5.18;;;15.30;99.90;;;;;;4920323;29;20163;-72
2022/07/02 05:53:35;;;;;;;5.53;4.68;;;15.40;99.90;;;;;;4922213;29;20062;-73
2022/07/02 05:56:00;;;;;;;6.13;5.00;;;15.50;99.90;;;;;;4926981;29;20136;-73
2022/07/02 05:58:26;;;;;;;5.13;4.32;;;15.60;99.90;;;;;;4927250;29;20055;-72
2022/07/02 06:00:52;;;;;;;4.40;4.00;;;15.70;99.90;;;;;;4910470;28;20138;-72
2022/07/02 06:03:18;;;;;;;5.47;4.40;;;15.80;99.90;;;;;;4935903;28;20056;-72
2022/07/02 06:08:27;;;;;;;5.47;4.25;;;16.00;99.90;;;;;;4923148;29;20063;-73
2022/07/02 06:10:53;;;;;;;6.65;3.70;;;16.10;99.90;;;;;;4911396;28;20428;-73
2022/07/02 06:13:19;;;;;;;7.90;4.40;;;16.30;99.90;;;;;;4906849;29;20219;-72
2022/07/02 06:15:44;;;;;;;4.57;3.83;;;16.50;99.90;;;;;;4908586;29;20048;-72
2022/07/02 06:18:12;;;;;;;7.70;3.67;;;16.60;99.90;;;;;;4907025;29;20089;-72
2022/07/02 06:20:38;;;;;;;4.63;3.70;;;16.80;99.90;;;;;;4920658;29;20113;-72
2022/07/02 06:23:04;;;;;;;3.85;3.13;;;17.20;99.90;;;;;;4921901;29;20146;-72
2022/07/02 06:25:29;;;;;;;6.10;3.50;;;18.20;99.90;;;;;;4928373;29;20122;-72
2022/07/02 06:27:55;;;;;;;3.50;3.13;;;19.50;99.90;;;;;;4925457;29;20141;-73
2022/07/02 06:30:23;;;;;;;6.03;3.53;;;20.70;99.90;;;;;;4929362;28;20791;-73
2022/07/02 06:32:49;;;;;;;4.75;3.42;;;21.50;99.90;;;;;;4928337;29;20733;-73
2022/07/02 06:35:15;;;;;;;7.90;3.10;;;22.40;99.90;;;;;;4921028;29;20043;-73
2022/07/02 06:37:41;;;;;;;4.75;2.78;;;23.00;99.90;;;;;;4919997;29;20394;-73
2022/07/02 06:40:07;;;;;;;3.60;3.30;;;23.40;99.90;;;;;;4918112;29;20566;-72
2022/07/02 06:42:33;;;;;;;4.32;2.47;;;23.80;99.90;;;;;;4926289;29;20051;-73
2022/07/02 06:44:59;;;;;;;4.10;2.75;;;24.50;99.90;;;;;;4911618;29;20056;-74
2022/07/02 06:47:26;;;;;;;4.22;2.30;;;24.50;98.40;;;;;;4914033;29;20514;-73
2022/07/02 06:49:54;;;;;;;4.38;2.55;;;24.80;95.70;;;;;;4926539;29;20476;-74
2022/07/02 06:52:20;;;;;;;3.00;2.15;;;25.00;94.80;;;;;;4932325;28;20087;-74
2022/07/02 06:54:46;;;;;;;2.03;1.77;;;25.10;96.30;;;;;;4918531;29;20221;-73
2022/07/02 06:57:12;;;;;;;5.63;2.40;;;25.10;95.70;;;;;;4927958;28;20245;-73
2022/07/02 06:59:38;;;;;;;3.00;2.10;;;25.50;95.20;;;;;;4923176;29;20047;-73
2022/07/02 07:02:05;;;;;;;3.20;1.75;;;25.50;94.60;;;;;;4915771;28;20044;-73
2022/07/02 07:04:33;;;;;;;6.82;1.80;;;25.50;93.50;;;;;;4908489;29;20524;-73
2022/07/02 07:07:00;;;;;;;3.95;2.35;;;25.40;93.10;;;;;;4910808;28;20043;-74
2022/07/02 07:09:30;;;;;;;2.10;1.60;;;25.60;91.80;;;;;;4913595;28;20055;-73
2022/07/02 07:11:56;;;;;;;2.95;1.70;;;25.40;89.00;;;;;;4922764;28;20044;-73
2022/07/02 07:14:22;;;;;;;2.42;1.30;;;25.60;92.20;;;;;;4907101;29;20087;-72
2022/07/02 07:16:48;;;;;;;3.78;1.60;;;26.10;91.60;;;;;;4919729;29;20818;-73
2022/07/02 07:19:14;;;;;;;2.65;1.88;;;26.40;90.50;;;;;;4912433;29;20048;-73
2022/07/02 07:21:41;;;;;;;1.85;1.20;;;26.80;90.20;;;;;;4912504;29;20056;-73
2022/07/02 07:24:08;;;;;;;1.08;1.08;;;27.00;86.70;;;;;;4912717;29;20054;-73
2022/07/02 07:26:35;;;;;;;2.78;1.25;;;26.90;88.40;;;;;;4920807;29;20058;-74
2022/07/02 07:29:02;;;;;;;2.00;1.63;;;27.10;83.60;;;;;;4924051;29;20127;-72
2022/07/02 07:31:28;;;;;;;2.20;1.08;;;27.10;85.80;;;;;;4913775;29;20461;-72
2022/07/02 07:33:56;;;;;;;2.17;1.73;;;26.90;85.50;;;;;;4914452;29;20952;-73
2022/07/02 07:36:24;;;;;;;2.17;1.10;;;27.00;84.70;;;;;;4926542;29;20135;-73
2022/07/02 07:38:51;;;;;;;1.27;1.05;;;27.10;83.60;;;;;;4925846;28;20040;-73
2022/07/02 07:41:18;;;;;;;1.40;1.10;;;27.40;83.50;;;;;;4916526;29;20775;-73
2022/07/02 07:43:44;;;;;;;1.25;1.10;;;27.40;81.00;;;;;;4926724;29;20158;-73
2022/07/02 07:46:10;;;;;;;5.05;1.63;;;27.50;82.40;;;;;;4920526;29;20048;-73
2022/07/02 07:48:35;;;;;;;2.05;0.93;;;27.40;80.70;;;;;;4926908;29;20035;-73
2022/07/02 07:51:01;;;;;;;2.08;0.80;;;27.90;81.90;;;;;;4923525;29;20044;-73
2022/07/02 07:53:27;;;;;;;1.40;1.08;;;27.90;81.70;;;;;;4925864;28;20090;-73
2022/07/02 07:55:54;;;;;;;5.03;1.25;;;27.80;80.00;;;;;;4918742;29;20155;-74
2022/07/02 07:58:20;;;;;;;3.97;1.23;;;27.50;79.60;;;;;;4919644;29;20047;-73
2022/07/02 08:00:46;;;;;;;1.42;1.02;;;27.40;78.60;;;;;;4917641;29;20059;-73
2022/07/02 08:03:14;;;;;;;1.83;0.88;;;27.60;79.20;;;;;;4910588;29;20155;-72
2022/07/02 08:05:43;;;;;;;1.35;1.00;;;27.30;78.60;;;;;;4916617;29;20052;-73
2022/07/02 08:08:08;;;;;;;2.78;1.15;;;27.40;78.60;;;;;;4918606;29;20087;-72
2022/07/02 08:10:34;;;;;;;1.60;0.90;;;27.90;78.00;;;;;;4921649;29;20055;-73
2022/07/02 08:13:00;;;;;;;4.38;1.10;;;27.70;78.00;;;;;;4917320;29;20491;-73
2022/07/02 08:15:26;;;;;;;2.70;1.52;;;28.20;78.60;;;;;;4920529;29;20198;-72
2022/07/02 08:17:53;;;;;;;4.72;1.35;;;28.60;75.60;;;;;;4907539;29;20110;-74
2022/07/02 08:20:19;;;;;;;1.10;0.95;;;28.60;77.60;;;;;;4916753;29;20098;-74
2022/07/02 08:22:46;;;;;;;1.17;0.90;;;28.70;76.60;;;;;;4917816;29;21488;-73
2022/07/02 08:25:14;;;;;;;1.30;0.90;;;28.60;76.30;;;;;;4917281;29;20571;-73
2022/07/02 08:27:40;;;;;;;2.63;1.10;;;28.80;76.20;;;;;;4920162;29;20056;-73
2022/07/02 08:30:07;;;;;;;1.52;1.00;;;28.60;75.50;;;;;;4930616;29;20044;-72
2022/07/02 08:32:32;;;;;;;1.35;0.82;;;28.40;75.20;;;;;;4933766;28;20047;-73
2022/07/02 08:34:59;;;;;;;2.30;1.00;;;28.60;76.30;;;;;;4928884;29;20930;-74
2022/07/02 08:37:25;;;;;;;2.35;0.88;;;28.90;76.30;;;;;;4928715;28;20521;-73
2022/07/02 08:39:51;;;;;;;1.10;0.50;;;28.80;74.40;;;;;;4918931;28;20878;-73
2022/07/02 08:42:29;;;;;;;0.82;0.70;;;28.60;73.80;;;;;;4924913;29;20058;-72
2022/07/02 08:44:57;;;;;;;0.50;0.50;;;28.80;70.80;;;;;;4908110;28;20173;-73
2022/07/02 08:47:24;;;;;;;2.70;0.77;;;28.60;69.80;;;;;;4914499;29;20072;-74
2022/07/02 08:49:55;;;;;;;1.00;0.63;;;28.60;72.20;;;;;;4907814;29;20056;-73
2022/07/02 08:52:22;;;;;;;0.65;0.60;;;28.60;72.40;;;;;;4923413;28;20055;-73
2022/07/02 08:54:49;;;;;;;0.77;0.60;;;29.10;73.80;;;;;;4917625;29;20083;-73
2022/07/02 08:57:16;;;;;;;2.75;0.75;;;29.00;73.60;;;;;;4927120;28;20047;-72
2022/07/02 08:59:42;;;;;;;0.32;0.32;;;28.70;69.90;;;;;;4910093;28;20051;-72
2022/07/02 09:02:10;;;;;;;2.90;0.50;;;28.70;70.40;;;;;;4922383;29;20055;-72
2022/07/02 09:04:40;;;;;;;0.73;0.68;;;28.60;70.60;;;;;;4916317;29;20078;-72
2022/07/02 09:07:07;;;;;;;1.40;0.50;;;28.70;70.40;;;;;;4908874;29;20063;-73
2022/07/02 09:09:33;;;;;;;0.50;0.50;;;28.50;68.70;;;;;;4905796;29;20127;-73
2022/07/02 09:11:59;;;;;;;0.88;0.40;;;28.30;67.10;;;;;;4904512;29;20328;-73
2022/07/02 09:14:25;;;;;;;0.75;0.38;;;28.10;67.60;;;;;;4919304;29;20586;-73
2022/07/02 09:16:51;;;;;;;0.50;0.45;;;28.00;67.90;;;;;;4919532;29;20459;-73
2022/07/02 09:19:18;;;;;;;1.67;0.60;;;28.20;68.00;;;;;;4914406;29;20171;-72
2022/07/02 09:21:52;;;;;;;1.13;0.55;;;28.60;66.50;;;;;;4936285;28;20054;-72
2022/07/02 09:24:29;;;;;;;0.38;0.38;;;28.60;67.10;;;;;;4917006;29;20063;-72
2022/07/02 09:27:03;;;;;;;1.58;0.57;;;28.60;66.50;;;;;;4919973;28;20154;-73
2022/07/02 09:29:39;;;;;;;2.15;0.68;;;28.40;66.10;;;;;;4928431;28;20239;-72
2022/07/02 09:32:05;;;;;;;0.60;0.40;;;28.40;67.20;;;;;;4918788;29;20056;-73
2022/07/02 09:34:30;;;;;;;1.25;0.40;;;28.50;68.00;;;;;;4924640;28;20416;-73
2022/07/02 09:36:56;;;;;;;1.13;0.52;;;28.50;67.70;;;;;;4923809;29;20044;-73
2022/07/02 09:39:29;;;;;;;0.40;0.22;;;28.60;66.80;;;;;;4925345;29;20055;-73
2022/07/02 09:41:56;;;;;;;1.65;0.40;;;28.30;63.50;;;;;;4933389;28;20055;-73
2022/07/02 09:44:22;;;;;;;1.42;0.50;;;28.40;65.20;;;;;;4919620;29;20090;-73
2022/07/02 09:46:47;;;;;;;1.33;0.40;;;28.70;67.70;;;;;;4922638;28;20130;-72
2022/07/02 09:49:15;;;;;;;0.88;0.60;;;28.70;66.80;;;;;;4905897;29;20039;-72
2022/07/02 09:51:54;;;;;;;1.80;0.47;;;28.90;68.10;;;;;;4931293;28;20052;-72
2022/07/02 09:54:20;;;;;;;1.95;0.40;;;28.60;63.10;;;;;;4917326;29;20060;-73
2022/07/02 09:56:57;;;;;;;0.47;0.47;;;28.70;65.90;;;;;;4918331;29;20511;-72
2022/07/02 09:59:24;;;;;;;0.45;0.38;;;28.70;63.50;;;;;;4917463;29;20115;-72
2022/07/02 10:01:50;;;;;;;1.98;0.55;;;28.60;66.10;;;;;;4916455;29;20052;-74
2022/07/02 10:04:25;;;;;;;1.48;0.35;;;28.70;65.30;;;;;;4913123;29;20062;-72
2022/07/02 10:06:52;;;;;;;0.93;0.80;;;28.50;66.20;;;;;;4910411;29;20144;-74
2022/07/02 10:09:19;;;;;;;1.63;0.73;;;27.90;64.00;;;;;;4921471;28;20131;-72
2022/07/02 10:11:45;;;;;;;0.65;0.50;;;27.50;63.70;;;;;;4910475;29;20063;-73
2022/07/02 10:14:15;;;;;;;1.38;0.50;;;27.60;65.90;;;;;;4921022;28;20051;-72
2022/07/02 10:16:42;;;;;;;1.77;0.40;;;27.60;64.90;;;;;;4916905;29;20149;-72
2022/07/02 10:19:10;;;;;;;1.80;0.70;;;27.80;65.00;;;;;;4922192;28;20082;-72
2022/07/02 10:21:38;;;;;;;2.08;0.52;;;27.80;67.10;;;;;;4916447;29;20415;-72
2022/07/02 10:24:06;;;;;;;0.47;0.47;;;28.20;66.10;;;;;;4923392;29;20055;-72
2022/07/02 10:26:32;;;;;;;1.20;0.60;;;28.00;64.70;;;;;;4920260;29;20063;-72
2022/07/02 10:29:03;;;;;;;1.65;0.47;;;28.30;65.30;;;;;;4912543;29;20054;-72
2022/07/02 10:31:39;;;;;;;0.23;0.23;;;28.40;66.80;;;;;;4916619;29;20056;-73
2022/07/02 10:34:29;;;;;;;0.68;0.50;;;28.20;64.30;;;;;;4920533;29;20053;-73
2022/07/02 10:36:57;;;;;;;1.95;0.47;;;27.80;64.20;;;;;;4912590;29;20059;-72
2022/07/02 10:39:24;;;;;;;1.65;0.68;;;28.00;65.10;;;;;;4910697;29;20067;-72
2022/07/02 10:41:50;;;;;;;2.05;0.60;;;27.80;64.40;;;;;;4917527;29;20058;-72
2022/07/02 10:44:15;;;;;;;1.58;0.40;;;27.70;63.40;;;;;;4917865;28;20051;-71
2022/07/02 10:46:46;;;;;;;0.82;0.45;;;27.80;64.00;;;;;;4920766;29;20051;-71
2022/07/02 10:49:23;;;;;;;0.50;0.35;;;27.70;62.30;;;;;;4916754;29;20043;-74
2022/07/02 10:51:55;;;;;;;1.20;0.50;;;28.10;66.60;;;;;;4930170;28;20090;-71
2022/07/02 10:54:30;;;;;;;0.47;0.30;;;28.00;63.60;;;;;;4920221;29;20182;-71
2022/07/02 10:56:56;;;;;;;0.85;0.30;;;28.30;67.30;;;;;;4929357;28;20138;-72
2022/07/02 10:59:22;;;;;;;0.57;0.45;;;28.30;64.80;;;;;;4932331;28;20133;-71
2022/07/02 11:02:06;;;;;;;0.38;0.30;;;28.50;65.80;;;;;;4929808;28;20130;-71
2022/07/02 11:04:32;;;;;;;2.22;0.50;;;28.30;61.10;;;;;;4908877;29;20069;-71
2022/07/02 11:07:12;;;;;;;1.27;0.45;;;28.00;63.90;;;;;;4914165;29;20957;-71
2022/07/02 11:09:57;;;;;;;0.82;0.70;;;28.20;62.80;;;;;;4921795;29;20048;-72
2022/07/02 11:12:41;;;;;;;1.20;0.73;;;28.20;65.20;;;;;;4910077;29;20058;-71
2022/07/02 11:15:21;;;;;;;1.98;0.73;;;28.00;64.10;;;;;;4912949;29;20048;-72
2022/07/02 11:17:50;;;;;;;0.65;0.40;;;27.70;64.50;;;;;;4919789;29;20051;-73
2022/07/02 11:20:24;;;;;;;1.23;0.60;;;27.40;64.40;;;;;;4921788;29;20048;-71
2022/07/02 11:22:49;;;;;;;3.22;0.38;;;27.60;61.90;;;;;;4911673;28;20059;-71
2022/07/02 11:25:15;;;;;;;1.45;0.57;;;27.40;63.90;;;;;;4923370;29;20051;-72
2022/07/02 11:27:41;;;;;;;1.27;0.60;;;27.20;63.10;;;;;;4907213;28;20056;-71
2022/07/02 11:30:08;;;;;;;0.90;0.68;;;27.00;62.10;;;;;;4917056;29;20182;-71
2022/07/02 11:32:36;;;;;;;1.05;0.55;;;26.90;62.70;;;;;;4921105;28;20062;-73
2022/07/02 11:35:02;;;;;;;2.05;0.70;;;26.90;63.90;;;;;;4919007;29;20078;-73
2022/07/02 11:37:28;;;;;;;0.82;0.73;;;27.10;64.90;;;;;;4912231;29;20048;-71
2022/07/02 11:39:53;;;;;;;1.73;0.55;;;27.00;64.50;;;;;;4919849;29;20052;-71
2022/07/02 11:42:36;;;;;;;1.30;0.65;;;26.90;64.60;;;;;;4918737;29;20139;-72
2022/07/02 11:45:02;;;;;;;0.68;0.40;;;27.00;66.80;;;;;;4904204;29;20850;-71
2022/07/02 11:47:28;;;;;;;1.02;0.65;;;27.10;64.50;;;;;;4917018;29;20063;-71
2022/07/02 11:49:53;;;;;;;1.17;0.60;;;26.80;62.60;;;;;;4919630;29;20043;-71
2022/07/02 11:52:19;;;;;;;1.17;0.60;;;26.60;61.90;;;;;;4919504;29;20055;-71
2022/07/02 11:54:45;;;;;;;1.42;0.50;;;26.90;64.20;;;;;;4913000;29;20060;-71
2022/07/02 11:57:11;;;;;;;1.00;0.50;;;27.10;65.00;;;;;;4926208;29;20046;-72
2022/07/02 11:59:36;;;;;;;1.20;0.40;;;27.10;64.40;;;;;;4913274;29;20063;-72
2022/07/02 12:02:02;;;;;;;0.50;0.50;;;26.70;62.70;;;;;;4911209;29;20047;-73
2022/07/02 12:04:28;;;;;;;0.75;0.60;;;26.60;64.30;;;;;;4915596;29;20058;-71
2022/07/02 12:06:57;;;;;;;2.05;0.80;;;26.70;65.10;;;;;;4918140;29;20082;-73
2022/07/02 12:09:24;;;;;;;1.27;1.10;;;26.80;64.30;;;;;;4924433;29;20783;-72
2022/07/02 12:11:54;;;;;;;1.10;0.63;;;26.70;63.70;;;;;;4920669;29;20079;-71
2022/07/02 12:14:28;;;;;;;0.50;0.50;;;26.70;65.20;;;;;;4908451;29;20055;-72
2022/07/02 12:16:54;;;;;;;1.40;0.68;;;26.60;65.70;;;;;;4915013;29;20047;-73
2022/07/02 12:19:24;;;;;;;0.90;0.68;;;26.80;64.60;;;;;;4917191;29;20841;-73
2022/07/02 12:21:50;;;;;;;0.32;0.32;;;26.70;65.20;;;;;;4917461;29;20911;-73
2022/07/02 12:24:30;;;;;;;0.60;0.60;;;26.70;65.40;;;;;;4922791;28;20043;-73
2022/07/02 12:27:07;;;;;;;1.13;0.73;;;26.50;63.80;;;;;;4918325;29;20056;-72
2022/07/02 12:29:53;;;;;;;1.08;0.73;;;26.30;63.40;;;;;;4918349;29;20063;-71
2022/07/02 12:32:22;;;;;;;0.52;0.52;;;26.10;64.20;;;;;;4915855;29;20055;-74
2022/07/02 12:34:56;;;;;;;0.30;0.30;;;26.10;64.60;;;;;;4906957;29;20081;-71
2022/07/02 12:37:39;;;;;;;1.17;0.95;;;26.10;65.70;;;;;;4907700;29;20083;-71
2022/07/02 12:40:06;;;;;;;;;;;26.10;64.20;;;;;;4906153;29;20103;-71
2022/07/02 12:42:43;;;;;;;2.47;0.90;;;25.90;66.80;;;;;;4923358;28;20033;-71
2022/07/02 12:45:09;;;;;;;3.17;0.73;;;25.90;66.60;;;;;;4917521;29;20122;-70
2022/07/02 12:47:39;;;;;;;1.30;0.60;;;26.20;66.50;;;;;;4915878;28;20368;-73
2022/07/02 12:50:14;;;;;;;1.23;0.80;;;26.30;67.30;;;;;;4919259;29;20043;-71
2022/07/02 12:52:48;;;;;;;1.42;0.77;;;26.30;66.90;;;;;;4916135;29;20062;-70
2022/07/02 12:55:41;;;;;;;0.75;0.70;;;26.50;65.40;;;;;;4927125;29;20054;-70